Time;durP1;ratioP1;P1;durP2;ratioP2;P2;SDS_P1;SDS_P2;PMS_P1;PMS_P2;Temp;Humidity;BMP_temperature;BMP_pressure;BME280_temperature;BME280_humidity;BME280_pressure;Samples;Min_cycle;Max_cycle;Signal;HPM_P1;HPM_P2
2021/03/22 00:02:51;;;;;;;10.47;3.37;;;;;;;3.44;68.39;100956.53;8893587;33;20251;-74
2021/03/22 00:07:55;;;;;;;13.30;3.77;;;;;;;3.47;68.65;100944.94;8861205;33;20221;-74
2021/03/22 00:12:58;;;;;;;13.73;3.27;;;;;;;3.55;69.09;100949.91;8889289;33;20229;-74
2021/03/22 00:18:07;;;;;;;13.67;3.60;;;;;;;3.42;70.51;100949.56;8878256;33;20226;-74
2021/03/22 00:23:11;;;;;;;10.37;3.23;;;;;;;3.60;70.21;100953.25;8882610;33;20220;-74
2021/03/22 00:28:16;;;;;;;15.87;3.97;;;;;;;3.45;70.76;100955.59;8888479;33;20943;-74
2021/03/22 00:33:20;;;;;;;11.83;3.80;;;;;;;3.46;71.10;100952.03;8893433;33;20768;-74
2021/03/22 00:38:23;;;;;;;9.67;2.73;;;;;;;3.28;71.34;100963.44;8882685;33;20723;-76
2021/03/22 00:43:26;;;;;;;12.03;3.07;;;;;;;3.33;71.42;100958.78;8881325;33;20226;-74
2021/03/22 00:48:32;;;;;;;10.87;3.77;;;;;;;3.39;71.66;100950.56;8883394;33;20226;-74
2021/03/22 00:53:35;;;;;;;11.53;3.20;;;;;;;3.55;71.35;100952.56;8859037;33;20218;-74
2021/03/22 00:58:40;;;;;;;22.13;3.70;;;;;;;3.65;70.67;100951.25;8886030;33;20694;-73
2021/03/22 01:03:42;;;;;;;16.90;4.07;;;;;;;3.77;70.39;100955.16;8881542;33;20226;-73
2021/03/22 01:08:45;;;;;;;12.10;3.87;;;;;;;3.63;70.62;100950.47;8899924;33;20221;-74
2021/03/22 01:13:52;;;;;;;12.70;3.13;;;;;;;3.75;70.57;100951.72;8895013;33;20226;-74
2021/03/22 01:18:57;;;;;;;8.70;3.53;;;;;;;3.55;70.75;100949.91;8887183;33;20233;-74
2021/03/22 01:24:01;;;;;;;11.30;3.47;;;;;;;3.54;72.67;100950.81;8856298;33;20229;-74
2021/03/22 01:29:08;;;;;;;15.73;3.63;;;;;;;3.50;73.18;100943.00;8884762;33;20292;-73
2021/03/22 01:34:10;;;;;;;15.43;5.07;;;;;;;3.40;73.14;100933.72;8900453;33;20744;-74
2021/03/22 01:39:18;;;;;;;16.07;4.77;;;;;;;3.26;73.46;100930.75;8894004;33;20226;-74
2021/03/22 01:44:26;;;;;;;14.60;3.80;;;;;;;3.17;73.71;100928.50;8864770;33;20251;-74
2021/03/22 01:49:37;;;;;;;13.00;3.27;;;;;;;3.24;74.38;100922.00;8900020;33;20253;-74
2021/03/22 01:54:39;;;;;;;14.47;4.20;;;;;;;3.35;74.50;100927.72;8915580;33;20956;-74
2021/03/22 01:59:42;;;;;;;25.27;4.97;;;;;;;3.41;74.26;100918.63;8889790;33;20232;-74
2021/03/22 02:04:45;;;;;;;13.00;4.10;;;;;;;3.35;74.25;100921.56;8917793;33;20225;-74
2021/03/22 02:09:47;;;;;;;20.17;4.87;;;;;;;3.31;74.31;100919.94;8915537;33;20232;-74
2021/03/22 02:14:52;;;;;;;16.47;4.57;;;;;;;3.37;73.99;100917.88;8915456;33;20242;-74
2021/03/22 02:21:06;;;;;;;18.30;4.50;;;;;;;3.34;73.95;100914.50;8915095;33;20252;-74
2021/03/22 02:26:33;;;;;;;9.30;3.60;;;;;;;3.42;73.94;100915.91;8827561;33;20232;-73
2021/03/22 02:32:17;;;;;;;12.20;4.57;;;;;;;3.45;74.76;100925.53;8914793;33;20232;-73
2021/03/22 02:37:36;;;;;;;19.37;4.23;;;;;;;3.31;75.05;100923.47;8892299;33;20233;-74
2021/03/22 02:42:43;;;;;;;14.17;4.57;;;;;;;3.45;75.09;100923.72;8872496;33;20237;-74
2021/03/22 02:47:46;;;;;;;13.23;4.70;;;;;;;3.30;75.89;100926.19;8873303;33;20313;-74
2021/03/22 02:53:39;;;;;;;17.23;4.67;;;;;;;3.11;76.18;100926.94;8868379;33;20714;-74
2021/03/22 02:58:47;;;;;;;20.30;5.47;;;;;;;3.11;76.19;100926.94;8894200;33;20284;-74
2021/03/22 03:03:52;;;;;;;12.03;5.70;;;;;;;3.26;76.02;100934.28;8887943;33;20729;-74
2021/03/22 03:08:56;;;;;;;16.50;4.57;;;;;;;3.34;75.79;100933.94;8891539;33;20754;-74
2021/03/22 03:13:58;;;;;;;24.73;5.90;;;;;;;3.41;75.56;100937.22;8872037;33;20225;-74
2021/03/22 03:19:01;;;;;;;21.67;6.93;;;;;;;3.16;75.47;100938.25;8874987;33;20228;-74
2021/03/22 03:24:07;;;;;;;17.13;6.10;;;;;;;3.10;76.08;100933.19;8897593;33;20242;-74
2021/03/22 03:29:09;;;;;;;20.07;6.00;;;;;;;3.16;76.22;100935.59;8891141;33;20221;-74
2021/03/22 03:34:11;;;;;;;18.97;5.43;;;;;;;3.21;76.20;100941.59;8870961;33;20248;-74
2021/03/22 03:39:15;;;;;;;12.57;5.23;;;;;;;3.03;76.85;100934.38;8877764;33;20658;-74
2021/03/22 03:44:17;;;;;;;10.97;4.57;;;;;;;3.00;76.65;100938.00;8894869;33;20248;-74
2021/03/22 03:49:20;;;;;;;13.40;4.40;;;;;;;3.22;76.37;100947.75;8888763;33;20300;-74
2021/03/22 03:54:23;;;;;;;20.20;4.13;;;;;;;3.26;76.40;100944.03;8886216;33;20218;-74
2021/03/22 03:59:25;;;;;;;13.40;4.07;;;;;;;2.92;77.25;100948.06;8901457;33;20225;-74
2021/03/22 04:04:27;;;;;;;12.27;3.57;;;;;;;3.30;77.26;100950.09;8906495;33;20221;-75
2021/03/22 04:09:30;;;;;;;8.83;3.77;;;;;;;3.34;77.55;100957.00;8895320;33;21396;-73
2021/03/22 04:14:32;;;;;;;8.57;3.77;;;;;;;3.30;77.93;100966.03;8890089;33;20234;-76
2021/03/22 04:19:35;;;;;;;9.17;3.47;;;;;;;3.34;78.47;100962.31;8867184;33;20232;-74
2021/03/22 04:24:38;;;;;;;10.57;3.33;;;;;;;3.32;78.59;100969.47;8878840;33;20256;-76
2021/03/22 04:29:40;;;;;;;7.80;3.50;;;;;;;3.36;78.92;100960.44;8869479;33;20226;-73
2021/03/22 04:34:42;;;;;;;9.77;3.10;;;;;;;3.35;79.02;100966.72;8887052;33;20222;-74
2021/03/22 04:39:45;;;;;;;9.70;3.03;;;;;;;3.31;79.14;100968.59;8899652;33;20218;-75
2021/03/22 04:44:47;;;;;;;8.83;3.00;;;;;;;3.23;78.95;100968.06;8871430;33;20674;-75
2021/03/22 04:49:49;;;;;;;8.13;3.60;;;;;;;3.01;79.35;100965.41;8897141;33;20229;-75
2021/03/22 04:54:52;;;;;;;7.67;3.47;;;;;;;3.04;79.26;100967.94;8878603;33;20230;-74
2021/03/22 04:59:55;;;;;;;10.37;3.83;;;;;;;2.97;79.50;100962.03;8883721;33;20229;-73
2021/03/22 05:04:57;;;;;;;7.93;3.20;;;;;;;3.00;79.39;100971.66;8894811;33;20260;-74
2021/03/22 05:10:00;;;;;;;8.90;4.00;;;;;;;3.00;79.40;100969.00;8903802;33;20213;-74
2021/03/22 05:15:04;;;;;;;8.07;3.70;;;;;;;3.00;79.72;100969.00;8889855;33;20226;-74
2021/03/22 05:20:09;;;;;;;10.10;4.17;;;;;;;3.00;79.63;100975.16;8894884;33;20233;-75
2021/03/22 05:25:13;;;;;;;11.50;4.43;;;;;;;2.82;79.93;100979.41;8879571;33;20229;-73
2021/03/22 05:30:17;;;;;;;15.17;5.60;;;;;;;2.80;79.81;100981.28;8896900;33;20229;-74
2021/03/22 05:35:22;;;;;;;17.60;5.30;;;;;;;2.89;80.68;100982.69;8881840;33;20225;-74
2021/03/22 05:40:32;;;;;;;18.87;5.63;;;;;;;2.96;80.45;100983.31;8879441;33;20220;-74
2021/03/22 05:45:54;;;;;;;16.13;6.37;;;;;;;3.11;80.19;100992.47;8896092;33;20758;-74
2021/03/22 05:51:25;;;;;;;23.43;5.87;;;;;;;3.19;79.75;100985.06;8892435;33;20738;-74
2021/03/22 05:56:35;;;;;;;22.73;7.03;;;;;;;3.13;80.19;100993.28;8880065;33;20637;-75
2021/03/22 06:01:44;;;;;;;23.40;6.80;;;;;;;3.33;79.96;100987.16;8883453;33;20214;-75
2021/03/22 06:06:48;;;;;;;29.07;6.17;;;;;;;3.54;79.98;100994.22;8892015;33;21908;-74
2021/03/22 06:11:58;;;;;;;27.87;7.00;;;;;;;3.50;79.81;100995.25;8877940;33;20233;-74
2021/03/22 06:17:05;;;;;;;28.27;6.60;;;;;;;3.57;79.48;100990.56;8908462;33;20269;-75
2021/03/22 06:22:22;;;;;;;19.43;7.37;;;;;;;3.63;79.74;100993.81;8884689;33;20237;-74
2021/03/22 06:27:26;;;;;;;24.00;10.23;;;;;;;3.79;79.94;100999.34;8884835;33;20915;-73
2021/03/22 06:32:39;;;;;;;23.67;7.97;;;;;;;3.85;79.66;101008.84;8885118;33;20225;-75
2021/03/22 06:37:43;;;;;;;19.33;6.53;;;;;;;3.82;79.04;101004.53;8881677;33;20240;-75
2021/03/22 06:43:09;;;;;;;18.77;6.57;;;;;;;3.97;79.62;101018.94;8875272;33;20218;-75
2021/03/22 06:48:28;;;;;;;22.77;7.77;;;;;;;4.02;79.14;101022.28;8882982;33;20265;-75
2021/03/22 06:53:42;;;;;;;16.80;6.40;;;;;;;4.01;78.79;101028.53;8875502;33;20225;-75
2021/03/22 06:58:47;;;;;;;15.67;5.77;;;;;;;4.00;78.71;101034.75;8885051;33;20294;-76
2021/03/22 07:03:50;;;;;;;13.87;4.97;;;;;;;4.07;78.77;101038.03;8866791;33;20684;-76
2021/03/22 07:08:53;;;;;;;30.23;14.27;;;;;;;4.12;79.00;101039.56;8868501;33;20226;-76
2021/03/22 07:14:00;;;;;;;14.40;6.00;;;;;;;4.10;78.51;101044.06;8885280;33;20224;-76
2021/03/22 07:19:14;;;;;;;21.25;6.65;;;;;;;3.83;78.21;101046.13;8913276;33;20228;-73
2021/03/22 07:24:25;;;;;;;16.07;6.90;;;;;;;4.11;78.57;101045.81;8906527;33;20225;-76
2021/03/22 07:30:04;;;;;;;18.10;6.47;;;;;;;4.30;78.45;101045.00;8906002;33;20226;-74
2021/03/22 07:35:30;;;;;;;18.13;6.20;;;;;;;4.50;78.14;101052.06;8863908;33;20238;-73
2021/03/22 07:40:40;;;;;;;17.67;6.27;;;;;;;4.64;78.18;101060.31;8872080;33;20233;-74
2021/03/22 07:45:57;;;;;;;16.17;5.18;;;;;;;5.01;77.74;101064.81;8904609;33;20248;-74
2021/03/22 07:51:12;;;;;;;18.67;5.10;;;;;;;5.11;77.11;101061.75;8881349;33;20217;-73
2021/03/22 07:56:24;;;;;;;14.25;4.28;;;;;;;5.52;77.82;101069.53;8904499;33;20718;-74
2021/03/22 08:01:47;;;;;;;12.32;3.85;;;;;;;5.37;75.61;101076.47;8905173;33;20266;-74
2021/03/22 08:07:07;;;;;;;7.80;4.10;;;;;;;5.27;77.04;101076.06;8900594;33;20248;-74
2021/03/22 08:12:18;;;;;;;11.20;4.28;;;;;;;5.59;76.87;101084.28;8912560;33;20625;-74
2021/03/22 08:17:49;;;;;;;8.55;3.58;;;;;;;5.61;75.13;101088.59;8905780;33;20258;-74
2021/03/22 08:23:00;;;;;;;8.88;3.92;;;;;;;4.89;76.05;101092.00;8894549;33;20614;-74
2021/03/22 08:28:15;;;;;;;6.03;3.22;;;;;;;5.28;76.71;101097.28;8911113;33;20229;-74
2021/03/22 08:33:29;;;;;;;15.85;5.32;;;;;;;5.33;77.21;101105.06;8908354;33;20730;-72
2021/03/22 08:38:46;;;;;;;10.52;3.80;;;;;;;5.16;77.72;101115.66;8910432;33;21102;-74
2021/03/22 08:43:54;;;;;;;33.78;10.38;;;;;;;5.24;78.33;101110.84;8908534;33;20796;-73
2021/03/22 08:49:01;;;;;;;9.70;3.95;;;;;;;5.34;78.27;101120.09;8897658;33;20229;-73
2021/03/22 08:54:05;;;;;;;7.68;3.80;;;;;;;5.22;78.46;101126.03;8884191;33;20213;-75
2021/03/22 08:59:11;;;;;;;17.40;6.05;;;;;;;5.45;78.80;101131.09;8898255;33;20226;-74
2021/03/22 09:04:32;;;;;;;13.98;4.28;;;;;;;5.87;78.85;101126.41;8903156;33;20221;-74
2021/03/22 09:09:37;;;;;;;11.07;5.07;;;;;;;5.63;76.86;101112.53;8891100;33;20216;-75
2021/03/22 09:14:44;;;;;;;7.15;4.05;;;;;;;5.15;76.65;101130.75;8912108;33;20233;-74
2021/03/22 09:19:47;;;;;;;7.38;3.47;;;;;;;5.35;77.27;101127.16;8909170;33;20237;-73
2021/03/22 09:24:56;;;;;;;8.43;3.30;;;;;;;5.63;76.75;101129.38;8894362;33;20225;-74
2021/03/22 09:30:40;;;;;;;9.18;3.53;;;;;;;5.78;76.17;101124.22;8879308;33;20222;-74
2021/03/22 09:36:25;;;;;;;11.00;5.03;;;;;;;6.15;77.30;101124.13;8849063;33;20233;-74
2021/03/22 09:42:18;;;;;;;12.30;4.97;;;;;;;6.08;76.63;101127.16;8875933;33;20209;-75
2021/03/22 09:47:23;;;;;;;5.47;3.13;;;;;;;5.85;76.96;101126.50;8886422;33;20229;-74
2021/03/22 09:52:31;;;;;;;5.40;3.20;;;;;;;5.75;77.27;101132.38;8884323;33;20295;-74
2021/03/22 09:57:43;;;;;;;5.22;3.30;;;;;;;5.68;77.06;101146.00;8911380;33;20233;-75
2021/03/22 10:02:50;;;;;;;3.08;2.42;;;;;;;5.50;77.23;101152.22;8875063;33;20217;-74
2021/03/22 10:08:19;;;;;;;9.23;4.85;;;;;;;5.38;77.46;101153.66;8913003;33;20221;-74
2021/03/22 10:13:26;;;;;;;7.18;3.60;;;;;;;5.52;78.09;101163.69;8910236;33;20276;-75
2021/03/22 10:18:34;;;;;;;9.65;5.85;;;;;;;5.60;78.15;101152.66;8889261;33;20358;-75
2021/03/22 10:23:50;;;;;;;14.43;6.97;;;;;;;5.81;78.87;101156.91;8926433;33;20221;-75
2021/03/22 10:29:18;;;;;;;4.88;2.50;;;;;;;6.16;78.99;101163.19;8857994;33;20762;-74
2021/03/22 10:34:24;;;;;;;6.53;2.67;;;;;;;6.80;78.89;101144.78;8898192;33;20233;-75
2021/03/22 10:39:33;;;;;;;5.32;3.38;;;;;;;7.80;77.14;101144.66;8898631;33;20229;-75
2021/03/22 10:44:36;;;;;;;5.78;3.30;;;;;;;7.77;74.91;101150.19;8906934;33;20225;-74
2021/03/22 10:49:40;;;;;;;6.65;2.85;;;;;;;6.56;73.56;101153.16;8854521;33;20300;-75
2021/03/22 10:54:46;;;;;;;7.15;2.67;;;;;;;6.17;75.18;101159.59;8888135;33;20222;-74
2021/03/22 10:59:52;;;;;;;2.78;1.73;;;;;;;6.03;74.51;101170.06;8858338;33;20616;-74
2021/03/22 11:04:55;;;;;;;7.18;2.13;;;;;;;6.48;75.02;101162.50;8906337;33;20333;-74
2021/03/22 11:10:03;;;;;;;4.45;2.08;;;;;;;7.18;74.26;101158.78;8912058;33;20213;-74
2021/03/22 11:15:16;;;;;;;2.80;2.10;;;;;;;7.76;70.79;101159.16;8859529;33;20225;-73
2021/03/22 11:20:21;;;;;;;3.78;1.70;;;;;;;7.63;72.30;101164.34;8891541;33;20229;-75
2021/03/22 11:25:42;;;;;;;2.35;2.00;;;;;;;7.23;70.18;101166.53;8888176;33;20836;-75
2021/03/22 11:31:01;;;;;;;4.38;2.10;;;;;;;6.62;70.31;101170.66;8861946;33;20309;-75
2021/03/22 11:36:11;;;;;;;3.33;2.55;;;;;;;6.38;72.31;101175.44;8896745;33;20218;-75
2021/03/22 11:41:29;;;;;;;2.85;1.63;;;;;;;6.16;73.51;101183.66;8873653;33;20225;-73
2021/03/22 11:46:37;;;;;;;2.50;2.30;;;;;;;6.22;72.96;101177.16;8885376;33;20228;-75
2021/03/22 11:51:50;;;;;;;3.35;2.17;;;;;;;6.46;71.72;101185.72;8897902;33;20224;-74
2021/03/22 11:57:00;;;;;;;2.97;1.98;;;;;;;6.56;72.31;101177.16;8909846;33;20221;-73
2021/03/22 12:02:20;;;;;;;3.15;1.80;;;;;;;6.71;71.55;101180.84;8913907;33;20217;-74
2021/03/22 12:07:41;;;;;;;3.22;2.00;;;;;;;7.05;71.93;101182.63;8911767;33;20229;-74
2021/03/22 12:12:44;;;;;;;5.35;1.83;;;;;;;7.75;72.26;101165.47;8913665;33;20233;-74
2021/03/22 12:17:56;;;;;;;2.30;1.88;;;;;;;8.54;72.04;101174.22;8888459;33;20229;-74
2021/03/22 12:23:00;;;;;;;2.40;1.98;;;;;;;8.26;70.26;101172.28;8915081;33;20222;-74
2021/03/22 12:28:04;;;;;;;3.47;2.20;;;;;;;7.37;70.20;101179.16;8913804;33;20630;-74
2021/03/22 12:33:08;;;;;;;2.70;1.70;;;;;;;6.73;69.89;101184.31;8913352;33;20218;-73
2021/03/22 12:38:12;;;;;;;3.22;2.08;;;;;;;7.34;70.03;101180.19;8912174;33;20226;-74
2021/03/22 12:43:23;;;;;;;3.28;1.73;;;;;;;8.63;70.83;101167.44;8911617;33;20230;-74
2021/03/22 12:48:25;;;;;;;3.40;2.05;;;;;;;9.14;69.70;101164.34;8885645;33;20240;-73
2021/03/22 12:53:28;;;;;;;3.65;2.17;;;;;;;7.99;63.04;101168.53;8887001;33;20213;-74
2021/03/22 12:58:31;;;;;;;3.72;2.20;;;;;;;7.68;67.76;101172.97;8874986;33;20280;-73
2021/03/22 13:03:33;;;;;;;5.35;3.10;;;;;;;7.71;71.07;101168.31;8908296;33;20214;-76
2021/03/22 13:08:36;;;;;;;8.57;3.45;;;;;;;7.36;69.96;101172.09;8889982;33;20221;-74
2021/03/22 13:13:39;;;;;;;5.85;2.20;;;;;;;7.56;65.63;101165.63;8871028;33;20730;-74
2021/03/22 13:18:42;;;;;;;3.20;2.38;;;;;;;7.97;66.14;101168.63;8915385;33;20217;-73
2021/03/22 13:23:46;;;;;;;3.58;2.20;;;;;;;7.70;63.29;101166.56;8912602;33;20280;-73
2021/03/22 13:28:53;;;;;;;6.25;2.75;;;;;;;7.50;64.15;101164.16;8912303;33;20236;-73
2021/03/22 13:33:55;;;;;;;6.57;2.42;;;;;;;7.53;68.53;101168.47;8914576;33;20273;-74
2021/03/22 13:38:58;;;;;;;4.20;2.30;;;;;;;7.66;65.58;101174.88;8903597;33;20956;-73
2021/03/22 13:44:03;;;;;;;14.70;5.78;;;;;;;7.80;68.51;101166.91;8922284;33;20229;-75
2021/03/22 13:49:05;;;;;;;10.20;4.18;;;;;;;8.21;69.88;101157.44;8917356;33;20683;-74
2021/03/22 13:54:11;;;;;;;6.25;2.90;;;;;;;7.79;63.18;101169.66;8914167;33;20229;-74
2021/03/22 13:59:21;;;;;;;8.38;4.25;;;;;;;8.16;66.68;101165.75;8912969;33;20217;-75
2021/03/22 14:04:29;;;;;;;6.32;3.47;;;;;;;8.22;65.44;101159.16;8913859;33;20228;-74
2021/03/22 14:09:32;;;;;;;5.35;2.40;;;;;;;7.81;63.51;101155.25;8914213;33;20266;-73
2021/03/22 14:14:35;;;;;;;5.47;2.53;;;;;;;7.93;66.82;101154.56;8889215;33;20372;-74
2021/03/22 14:19:37;;;;;;;4.75;2.70;;;;;;;8.17;65.43;101160.31;8913575;33;20225;-73
2021/03/22 14:24:39;;;;;;;6.20;3.50;;;;;;;7.94;63.61;101160.78;8914196;33;21400;-74
2021/03/22 14:29:42;;;;;;;8.43;3.97;;;;;;;7.85;65.92;101155.97;8890561;33;20213;-74
2021/03/22 14:34:44;;;;;;;5.40;2.58;;;;;;;7.71;64.78;101159.44;8882833;33;20255;-74
2021/03/22 14:39:47;;;;;;;7.68;3.78;;;;;;;7.59;65.25;101152.94;8912951;33;20225;-74
2021/03/22 14:44:52;;;;;;;4.90;2.92;;;;;;;7.66;67.12;101156.16;8912590;33;20213;-75
2021/03/22 14:49:54;;;;;;;5.75;2.83;;;;;;;7.18;64.27;101155.25;8911805;33;20224;-74
2021/03/22 14:54:56;;;;;;;5.88;2.75;;;;;;;6.09;66.82;101145.78;8912577;33;20749;-74
2021/03/22 15:00:00;;;;;;;9.73;2.53;;;;;;;6.30;68.18;101157.16;8921536;33;20233;-75
2021/03/22 15:05:03;;;;;;;5.18;2.40;;;;;;;6.31;67.91;101161.56;8910887;33;20225;-75
2021/03/22 15:10:08;;;;;;;4.18;2.22;;;;;;;6.21;68.14;101159.44;8893303;33;20639;-75
2021/03/22 15:15:14;;;;;;;5.45;2.65;;;;;;;6.30;66.76;101165.16;8908406;33;20302;-73
2021/03/22 15:20:21;;;;;;;3.85;2.45;;;;;;;6.31;67.55;101156.22;8903806;33;20225;-75
2021/03/22 15:25:33;;;;;;;6.85;2.75;;;;;;;6.55;66.82;101159.41;8899732;33;20238;-75
2021/03/22 15:30:37;;;;;;;6.03;2.70;;;;;;;6.48;65.86;101168.69;8900331;33;20221;-74
2021/03/22 15:35:39;;;;;;;6.50;3.05;;;;;;;6.27;66.12;101173.31;8911428;33;20226;-75
2021/03/22 15:40:41;;;;;;;6.60;2.80;;;;;;;6.22;65.60;101178.00;8911961;33;20233;-75
2021/03/22 15:45:44;;;;;;;5.18;2.88;;;;;;;6.39;65.81;101177.19;8870737;33;20808;-75
2021/03/22 15:50:46;;;;;;;5.45;3.03;;;;;;;6.30;65.33;101166.97;8889201;33;20230;-74
2021/03/22 15:55:48;;;;;;;9.82;5.28;;;;;;;6.49;65.93;101174.91;8886486;33;20222;-75
2021/03/22 16:00:52;;;;;;;8.50;4.57;;;;;;;6.47;66.07;101182.97;8890730;33;20225;-75
2021/03/22 16:05:55;;;;;;;10.52;3.58;;;;;;;6.45;65.10;101178.69;8899116;33;20221;-73
2021/03/22 16:10:57;;;;;;;8.13;3.67;;;;;;;6.59;64.26;101181.50;8893382;33;20218;-74
2021/03/22 16:16:03;;;;;;;6.97;3.38;;;;;;;6.36;64.61;101186.22;8903346;33;20582;-74
2021/03/22 16:21:06;;;;;;;2.38;2.05;;;;;;;6.36;63.47;101191.53;8910827;33;20735;-74
2021/03/22 16:26:10;;;;;;;6.35;3.03;;;;;;;6.40;64.17;101201.09;8918104;33;20244;-75
2021/03/22 16:31:13;;;;;;;6.82;3.28;;;;;;;6.42;62.31;101194.81;8920786;33;20229;-72
2021/03/22 16:36:16;;;;;;;7.07;3.17;;;;;;;6.26;61.87;101195.59;8914968;33;20599;-73
2021/03/22 16:41:20;;;;;;;7.90;3.17;;;;;;;6.15;62.02;101197.94;8916695;33;20644;-70
2021/03/22 16:46:24;;;;;;;4.30;2.85;;;;;;;6.28;61.76;101209.75;8916098;33;20222;-71
2021/03/22 16:51:26;;;;;;;5.75;2.88;;;;;;;6.12;61.63;101206.97;8890882;33;20241;-72
2021/03/22 16:56:28;;;;;;;7.60;3.03;;;;;;;6.27;62.06;101212.47;8890173;33;20221;-72
2021/03/22 17:01:32;;;;;;;5.85;3.45;;;;;;;5.93;62.54;101204.34;8898763;33;20233;-71
2021/03/22 17:06:35;;;;;;;4.57;3.33;;;;;;;5.68;62.57;101209.13;8915220;33;20591;-72
2021/03/22 17:11:37;;;;;;;8.02;4.68;;;;;;;5.85;62.70;101216.31;8898868;33;21765;-72
2021/03/22 17:16:40;;;;;;;8.02;4.78;;;;;;;6.10;62.33;101227.50;8882894;33;20256;-72
2021/03/22 17:21:43;;;;;;;7.68;3.92;;;;;;;6.06;62.55;101220.63;8898922;33;20232;-72
2021/03/22 17:26:45;;;;;;;7.85;3.38;;;;;;;5.87;62.94;101228.63;8902069;33;20225;-71
2021/03/22 17:31:48;;;;;;;5.57;3.17;;;;;;;5.69;62.96;101225.03;8908221;33;20226;-72
2021/03/22 17:36:50;;;;;;;7.03;3.15;;;;;;;5.89;62.56;101229.41;8915601;33;20263;-72
2021/03/22 17:41:52;;;;;;;5.30;3.42;;;;;;;5.81;63.78;101228.91;8878960;33;20743;-71
2021/03/22 17:46:56;;;;;;;6.60;3.00;;;;;;;5.75;63.15;101233.69;8887437;33;20237;-70
2021/03/22 17:51:59;;;;;;;6.32;3.00;;;;;;;5.79;63.50;101240.59;8860678;33;20735;-72
2021/03/22 17:57:01;;;;;;;4.13;2.78;;;;;;;5.50;63.63;101241.03;8903130;33;21814;-73
2021/03/22 18:02:05;;;;;;;6.60;3.20;;;;;;;5.59;63.14;101246.88;8865232;33;20217;-74
2021/03/22 18:07:07;;;;;;;6.65;3.28;;;;;;;5.64;63.63;101255.50;8874827;33;20287;-72
2021/03/22 18:12:12;;;;;;;18.35;8.32;;;;;;;5.61;63.38;101251.19;8882772;33;20222;-74
2021/03/22 18:17:15;;;;;;;15.38;7.05;;;;;;;5.76;62.97;101265.63;8839073;33;20253;-73
2021/03/22 18:22:17;;;;;;;10.00;5.03;;;;;;;5.56;62.95;101263.84;8886551;33;21461;-72
2021/03/22 18:27:20;;;;;;;8.80;4.35;;;;;;;5.58;63.15;101278.00;8867483;33;20229;-73
2021/03/22 18:32:23;;;;;;;9.02;3.85;;;;;;;5.63;63.33;101270.66;8911483;33;20698;-75
2021/03/22 18:37:25;;;;;;;5.72;3.50;;;;;;;5.67;62.81;101277.56;8879698;33;20294;-72
2021/03/22 18:42:27;;;;;;;6.40;3.50;;;;;;;5.56;63.35;101285.19;8858860;33;20299;-72
2021/03/22 18:47:30;;;;;;;6.28;3.63;;;;;;;5.46;62.75;101291.88;8888769;33;20908;-72
2021/03/22 18:52:33;;;;;;;7.50;3.92;;;;;;;5.58;62.31;101293.13;8864061;33;20722;-73
2021/03/22 18:57:35;;;;;;;6.88;3.50;;;;;;;5.35;62.78;101296.81;8861207;33;20237;-73
2021/03/22 19:02:38;;;;;;;8.63;3.40;;;;;;;5.56;62.65;101293.19;8904415;33;20213;-73
2021/03/22 19:07:41;;;;;;;5.82;3.17;;;;;;;5.62;62.11;101297.34;8913770;33;20249;-73
2021/03/22 19:12:43;;;;;;;7.22;3.28;;;;;;;5.56;61.92;101300.31;8901727;33;20257;-73
2021/03/22 19:17:47;;;;;;;7.63;3.85;;;;;;;5.35;62.58;101303.03;8877219;33;20296;-74
2021/03/22 19:22:50;;;;;;;6.03;3.17;;;;;;;5.47;62.16;101302.47;8895097;33;20363;-73
2021/03/22 19:27:52;;;;;;;7.07;4.72;;;;;;;5.57;61.89;101308.25;8881541;33;20236;-73
2021/03/22 19:32:56;;;;;;;3.92;2.90;;;;;;;5.61;62.08;101312.50;8884068;33;20225;-74
2021/03/22 19:37:59;;;;;;;5.18;3.13;;;;;;;5.46;62.24;101321.22;8900567;33;20229;-74
2021/03/22 19:43:01;;;;;;;5.65;3.00;;;;;;;5.56;62.37;101310.97;8879984;33;20218;-72
2021/03/22 19:48:21;;;;;;;6.10;3.50;;;;;;;5.57;62.74;101316.25;8898962;33;20939;-72
2021/03/22 19:53:28;;;;;;;7.00;3.50;;;;;;;5.57;62.05;101307.38;8887411;33;20828;-72
2021/03/22 19:58:31;;;;;;;6.65;3.28;;;;;;;5.52;62.07;101323.59;8911979;33;20221;-72
2021/03/22 20:03:34;;;;;;;10.35;3.50;;;;;;;5.52;62.83;101320.06;8913035;33;20270;-72
2021/03/22 20:08:37;;;;;;;6.30;3.40;;;;;;;5.45;63.30;101324.78;8898775;33;20232;-74
2021/03/22 20:13:46;;;;;;;6.57;3.38;;;;;;;5.52;64.02;101333.38;8891539;33;20252;-73
2021/03/22 20:18:53;;;;;;;6.80;4.03;;;;;;;5.63;63.54;101334.63;8903651;33;20241;-72
2021/03/22 20:23:56;;;;;;;8.98;3.40;;;;;;;5.47;63.82;101326.44;8904101;33;20315;-72
2021/03/22 20:28:59;;;;;;;9.20;4.05;;;;;;;5.33;64.19;101322.69;8912756;33;20248;-72
2021/03/22 20:34:21;;;;;;;4.97;2.90;;;;;;;5.56;63.70;101318.97;8890341;33;20280;-74
2021/03/22 20:39:23;;;;;;;5.00;3.63;;;;;;;5.41;63.84;101325.88;8884004;33;20229;-73
2021/03/22 20:44:26;;;;;;;8.50;3.22;;;;;;;5.44;64.34;101323.06;8862485;33;20230;-73
2021/03/22 20:49:29;;;;;;;5.55;3.00;;;;;;;5.59;63.73;101324.16;8867483;33;20630;-73
2021/03/22 20:54:31;;;;;;;5.88;3.35;;;;;;;5.59;63.87;101324.16;8868309;33;20647;-72
2021/03/22 20:59:33;;;;;;;6.85;3.03;;;;;;;5.43;64.17;101326.63;8892958;33;20230;-74
2021/03/22 21:04:36;;;;;;;8.48;3.55;;;;;;;5.45;64.17;101335.44;8871143;33;20236;-71
2021/03/22 21:09:38;;;;;;;6.18;2.92;;;;;;;5.44;63.21;101331.91;8856444;33;20218;-72
2021/03/22 21:14:41;;;;;;;4.43;2.70;;;;;;;5.48;60.84;101340.63;8909748;33;20222;-71
2021/03/22 21:19:44;;;;;;;4.75;2.97;;;;;;;5.62;60.44;101326.69;8892722;33;20233;-72
2021/03/22 21:24:46;;;;;;;4.40;2.17;;;;;;;5.55;58.98;101344.75;8918837;33;20232;-73
2021/03/22 21:29:48;;;;;;;3.42;2.15;;;;;;;5.47;59.30;101331.78;8917027;33;21392;-73
2021/03/22 21:34:51;;;;;;;3.35;2.17;;;;;;;5.55;59.51;101331.44;8919724;33;20269;-73
2021/03/22 21:39:53;;;;;;;4.78;2.50;;;;;;;5.34;60.61;101332.38;8917581;33;20237;-72
2021/03/22 21:44:55;;;;;;;5.15;2.45;;;;;;;5.39;61.33;101338.38;8916761;33;20237;-72
2021/03/22 21:49:58;;;;;;;4.95;2.60;;;;;;;5.47;61.14;101331.78;8916590;33;20221;-72
2021/03/22 21:55:01;;;;;;;3.78;2.85;;;;;;;5.44;61.48;101333.72;8888054;33;20726;-71
2021/03/22 22:00:06;;;;;;;4.18;2.70;;;;;;;5.41;61.88;101336.53;8916526;33;20221;-71
2021/03/22 22:05:11;;;;;;;4.78;2.72;;;;;;;5.25;62.44;101321.22;8917816;33;20781;-71
2021/03/22 22:10:15;;;;;;;4.30;3.20;;;;;;;5.08;63.01;101330.88;8904818;33;20212;-71
2021/03/22 22:15:22;;;;;;;4.47;2.92;;;;;;;5.30;61.17;101325.47;8915805;33;20286;-70
2021/03/22 22:20:26;;;;;;;4.57;2.88;;;;;;;5.44;61.47;101329.25;8920370;33;20890;-72
2021/03/22 22:25:29;;;;;;;7.28;3.15;;;;;;;5.39;61.53;101331.25;8916980;33;20225;-72
2021/03/22 22:30:31;;;;;;;6.60;2.70;;;;;;;5.43;61.88;101332.88;8853570;33;20233;-72
2021/03/22 22:35:36;;;;;;;4.53;2.80;;;;;;;5.47;61.53;101337.09;8917109;33;20229;-71
2021/03/22 22:40:41;;;;;;;4.82;2.83;;;;;;;5.30;62.48;101336.13;8918607;33;20225;-74
2021/03/22 22:45:43;;;;;;;4.45;2.80;;;;;;;5.32;62.49;101339.56;8895126;33;20233;-72
2021/03/22 22:50:47;;;;;;;8.15;2.88;;;;;;;5.31;62.08;101333.38;8906566;33;20228;-72
2021/03/22 22:55:49;;;;;;;5.53;3.00;;;;;;;5.16;62.95;101329.59;8879928;33;20222;-73
2021/03/22 23:00:51;;;;;;;5.10;2.92;;;;;;;5.28;63.28;101339.72;8878221;33;20234;-71
2021/03/22 23:05:55;;;;;;;3.35;2.30;;;;;;;5.37;61.41;101338.44;8882870;33;20295;-72
2021/03/22 23:11:01;;;;;;;4.10;2.80;;;;;;;5.24;62.63;101337.28;8877600;33;20222;-72
2021/03/22 23:16:05;;;;;;;4.65;2.88;;;;;;;5.27;62.90;101345.13;8884219;33;20275;-72
2021/03/22 23:21:15;;;;;;;4.97;2.92;;;;;;;5.25;62.58;101329.19;8882594;33;20268;-71
2021/03/22 23:26:20;;;;;;;4.80;2.60;;;;;;;5.24;62.23;101326.63;8886722;33;20237;-71
2021/03/22 23:31:25;;;;;;;4.07;2.80;;;;;;;5.19;62.45;101332.13;8887529;33;20225;-72
2021/03/22 23:36:33;;;;;;;3.53;2.65;;;;;;;5.24;62.54;101319.47;8871589;33;20221;-73
2021/03/22 23:41:36;;;;;;;3.08;2.40;;;;;;;5.26;62.45;101317.59;8880121;33;20218;-71
2021/03/22 23:46:38;;;;;;;4.32;2.60;;;;;;;5.19;62.85;101320.63;8881581;33;20742;-72
2021/03/22 23:51:44;;;;;;;3.95;2.92;;;;;;;5.25;63.16;101320.34;8874616;33;20760;-72
2021/03/22 23:56:47;;;;;;;6.97;3.38;;;;;;;5.21;63.43;101319.63;8882031;33;20234;-73
